sensor_id;sensor_type;location;lat;lon;timestamp;temperature;humidity
67188;DHT22;54117;53.532;49.426;2022-08-19T00:01:32;17.80;51.60
67188;DHT22;54117;53.532;49.426;2022-08-19T00:04:02;17.80;51.70
67188;DHT22;54117;53.532;49.426;2022-08-19T00:06:29;17.70;51.60
67188;DHT22;54117;53.532;49.426;2022-08-19T00:08:57;17.70;51.50
67188;DHT22;54117;53.532;49.426;2022-08-19T00:11:24;17.60;51.60
67188;DHT22;54117;53.532;49.426;2022-08-19T00:13:51;17.60;51.40
67188;DHT22;54117;53.532;49.426;2022-08-19T00:16:17;17.60;52.20
67188;DHT22;54117;53.532;49.426;2022-08-19T00:18:47;17.60;51.60
67188;DHT22;54117;53.532;49.426;2022-08-19T00:21:13;17.50;51.70
67188;DHT22;54117;53.532;49.426;2022-08-19T00:23:40;17.50;51.70
67188;DHT22;54117;53.532;49.426;2022-08-19T00:26:07;17.40;51.80
67188;DHT22;54117;53.532;49.426;2022-08-19T00:28:34;17.40;51.90
67188;DHT22;54117;53.532;49.426;2022-08-19T00:31:06;17.40;52.00
67188;DHT22;54117;53.532;49.426;2022-08-19T00:33:33;17.30;52.00
67188;DHT22;54117;53.532;49.426;2022-08-19T00:36:04;17.30;52.10
67188;DHT22;54117;53.532;49.426;2022-08-19T00:38:33;17.20;52.10
67188;DHT22;54117;53.532;49.426;2022-08-19T00:40:59;17.20;52.30
67188;DHT22;54117;53.532;49.426;2022-08-19T00:43:27;17.20;52.30
67188;DHT22;54117;53.532;49.426;2022-08-19T00:45:54;17.20;52.30
67188;DHT22;54117;53.532;49.426;2022-08-19T00:48:20;17.20;52.40
67188;DHT22;54117;53.532;49.426;2022-08-19T00:50:49;17.10;52.40
67188;DHT22;54117;53.532;49.426;2022-08-19T00:53:19;17.10;52.50
67188;DHT22;54117;53.532;49.426;2022-08-19T00:55:48;17.00;52.50
67188;DHT22;54117;53.532;49.426;2022-08-19T00:58:17;17.00;52.60
67188;DHT22;54117;53.532;49.426;2022-08-19T01:00:46;16.90;52.60
67188;DHT22;54117;53.532;49.426;2022-08-19T01:03:15;16.90;52.80
67188;DHT22;54117;53.532;49.426;2022-08-19T01:05:44;16.90;53.10
67188;DHT22;54117;53.532;49.426;2022-08-19T01:08:11;16.80;53.10
67188;DHT22;54117;53.532;49.426;2022-08-19T01:10:41;16.80;53.10
67188;DHT22;54117;53.532;49.426;2022-08-19T01:13:09;16.80;53.20
67188;DHT22;54117;53.532;49.426;2022-08-19T01:15:42;16.70;53.10
67188;DHT22;54117;53.532;49.426;2022-08-19T01:18:13;16.70;53.10
67188;DHT22;54117;53.532;49.426;2022-08-19T01:20:41;16.70;53.10
67188;DHT22;54117;53.532;49.426;2022-08-19T01:23:09;16.70;53.20
67188;DHT22;54117;53.532;49.426;2022-08-19T01:25:49;16.70;53.20
67188;DHT22;54117;53.532;49.426;2022-08-19T01:28:27;16.70;53.40
67188;DHT22;54117;53.532;49.426;2022-08-19T01:30:54;16.70;53.30
67188;DHT22;54117;53.532;49.426;2022-08-19T01:33:21;16.60;53.20
67188;DHT22;54117;53.532;49.426;2022-08-19T01:35:47;16.60;53.20
67188;DHT22;54117;53.532;49.426;2022-08-19T01:38:26;16.60;53.90
67188;DHT22;54117;53.532;49.426;2022-08-19T01:40:57;16.60;53.90
67188;DHT22;54117;53.532;49.426;2022-08-19T01:43:24;16.60;53.10
67188;DHT22;54117;53.532;49.426;2022-08-19T01:45:50;16.60;53.20
67188;DHT22;54117;53.532;49.426;2022-08-19T01:48:16;16.70;53.20
67188;DHT22;54117;53.532;49.426;2022-08-19T01:50:43;16.70;53.10
67188;DHT22;54117;53.532;49.426;2022-08-19T01:53:11;16.80;53.10
67188;DHT22;54117;53.532;49.426;2022-08-19T01:55:39;16.80;52.90
67188;DHT22;54117;53.532;49.426;2022-08-19T01:58:10;16.80;52.80
67188;DHT22;54117;53.532;49.426;2022-08-19T02:00:37;16.80;52.80
67188;DHT22;54117;53.532;49.426;2022-08-19T02:03:03;16.90;52.60
67188;DHT22;54117;53.532;49.426;2022-08-19T02:05:29;16.90;52.40
67188;DHT22;54117;53.532;49.426;2022-08-19T02:07:56;17.00;52.30
67188;DHT22;54117;53.532;49.426;2022-08-19T02:10:23;17.00;52.20
67188;DHT22;54117;53.532;49.426;2022-08-19T02:12:50;17.10;51.90
67188;DHT22;54117;53.532;49.426;2022-08-19T02:15:18;17.20;51.70
67188;DHT22;54117;53.532;49.426;2022-08-19T02:17:45;17.30;51.50
67188;DHT22;54117;53.532;49.426;2022-08-19T02:20:12;17.30;51.30
67188;DHT22;54117;53.532;49.426;2022-08-19T02:22:40;17.40;51.20
67188;DHT22;54117;53.532;49.426;2022-08-19T02:25:10;17.40;50.90
67188;DHT22;54117;53.532;49.426;2022-08-19T02:27:36;17.50;50.60
67188;DHT22;54117;53.532;49.426;2022-08-19T02:30:05;17.60;50.40
67188;DHT22;54117;53.532;49.426;2022-08-19T02:32:31;17.60;49.80
67188;DHT22;54117;53.532;49.426;2022-08-19T02:34:59;17.60;49.70
67188;DHT22;54117;53.532;49.426;2022-08-19T02:37:25;17.60;49.60
67188;DHT22;54117;53.532;49.426;2022-08-19T02:40:10;17.70;49.30
67188;DHT22;54117;53.532;49.426;2022-08-19T02:42:37;17.70;49.00
67188;DHT22;54117;53.532;49.426;2022-08-19T02:45:03;17.70;48.80
67188;DHT22;54117;53.532;49.426;2022-08-19T02:47:30;17.80;48.60
67188;DHT22;54117;53.532;49.426;2022-08-19T02:49:57;17.80;48.60
67188;DHT22;54117;53.532;49.426;2022-08-19T02:52:23;17.80;48.60
67188;DHT22;54117;53.532;49.426;2022-08-19T02:54:49;17.80;48.40
67188;DHT22;54117;53.532;49.426;2022-08-19T02:57:15;17.90;48.40
67188;DHT22;54117;53.532;49.426;2022-08-19T02:59:41;17.90;48.40
67188;DHT22;54117;53.532;49.426;2022-08-19T03:02:08;17.90;48.50
67188;DHT22;54117;53.532;49.426;2022-08-19T03:04:34;17.90;49.20
67188;DHT22;54117;53.532;49.426;2022-08-19T03:07:00;18.00;48.60
67188;DHT22;54117;53.532;49.426;2022-08-19T03:09:26;18.00;48.60
67188;DHT22;54117;53.532;49.426;2022-08-19T03:11:52;18.00;48.30
67188;DHT22;54117;53.532;49.426;2022-08-19T03:14:19;18.10;48.30
67188;DHT22;54117;53.532;49.426;2022-08-19T03:16:48;18.10;48.10
67188;DHT22;54117;53.532;49.426;2022-08-19T03:19:17;18.20;48.30
67188;DHT22;54117;53.532;49.426;2022-08-19T03:21:44;18.20;48.20
67188;DHT22;54117;53.532;49.426;2022-08-19T03:24:11;18.30;48.30
67188;DHT22;54117;53.532;49.426;2022-08-19T03:26:47;19.00;47.90
67188;DHT22;54117;53.532;49.426;2022-08-19T03:29:14;20.30;46.10
67188;DHT22;54117;53.532;49.426;2022-08-19T03:31:42;21.40;43.80
67188;DHT22;54117;53.532;49.426;2022-08-19T03:34:16;22.40;41.90
67188;DHT22;54117;53.532;49.426;2022-08-19T03:36:44;23.30;40.60
67188;DHT22;54117;53.532;49.426;2022-08-19T03:39:11;24.20;39.20
67188;DHT22;54117;53.532;49.426;2022-08-19T03:41:40;24.80;37.90
67188;DHT22;54117;53.532;49.426;2022-08-19T03:44:07;25.30;37.10
67188;DHT22;54117;53.532;49.426;2022-08-19T03:46:35;25.70;36.50
67188;DHT22;54117;53.532;49.426;2022-08-19T03:49:04;26.10;35.90
67188;DHT22;54117;53.532;49.426;2022-08-19T03:51:37;26.30;35.40
67188;DHT22;54117;53.532;49.426;2022-08-19T03:54:06;26.30;35.40
67188;DHT22;54117;53.532;49.426;2022-08-19T03:56:38;26.50;35.30
67188;DHT22;54117;53.532;49.426;2022-08-19T03:59:06;26.80;34.90
67188;DHT22;54117;53.532;49.426;2022-08-19T04:01:32;27.10;34.80
67188;DHT22;54117;53.532;49.426;2022-08-19T04:03:59;27.40;34.60
67188;DHT22;54117;53.532;49.426;2022-08-19T04:06:31;27.90;34.20
67188;DHT22;54117;53.532;49.426;2022-08-19T04:09:00;28.30;33.90
67188;DHT22;54117;53.532;49.426;2022-08-19T04:11:34;28.90;33.40
67188;DHT22;54117;53.532;49.426;2022-08-19T04:14:01;29.30;32.60
67188;DHT22;54117;53.532;49.426;2022-08-19T04:16:28;29.50;32.00
67188;DHT22;54117;53.532;49.426;2022-08-19T04:19:01;29.50;32.20
67188;DHT22;54117;53.532;49.426;2022-08-19T04:21:28;29.70;32.10
67188;DHT22;54117;53.532;49.426;2022-08-19T04:23:56;29.90;32.10
67188;DHT22;54117;53.532;49.426;2022-08-19T04:26:31;30.20;31.80
67188;DHT22;54117;53.532;49.426;2022-08-19T04:29:03;30.20;31.60
67188;DHT22;54117;53.532;49.426;2022-08-19T04:31:31;30.10;31.70
67188;DHT22;54117;53.532;49.426;2022-08-19T04:34:03;30.20;31.90
67188;DHT22;54117;53.532;49.426;2022-08-19T04:36:33;30.60;31.80
67188;DHT22;54117;53.532;49.426;2022-08-19T04:39:05;30.70;31.20
67188;DHT22;54117;53.532;49.426;2022-08-19T04:41:32;30.60;31.40
67188;DHT22;54117;53.532;49.426;2022-08-19T04:44:17;30.60;31.50
67188;DHT22;54117;53.532;49.426;2022-08-19T04:46:45;30.60;31.50
67188;DHT22;54117;53.532;49.426;2022-08-19T04:49:12;30.60;31.10
67188;DHT22;54117;53.532;49.426;2022-08-19T04:51:41;30.30;31.40
67188;DHT22;54117;53.532;49.426;2022-08-19T04:54:11;30.30;31.70
67188;DHT22;54117;53.532;49.426;2022-08-19T04:56:58;30.20;31.70
67188;DHT22;54117;53.532;49.426;2022-08-19T04:59:24;30.20;32.20
67188;DHT22;54117;53.532;49.426;2022-08-19T05:01:51;30.60;32.10
67188;DHT22;54117;53.532;49.426;2022-08-19T05:04:20;30.80;31.10
67188;DHT22;54117;53.532;49.426;2022-08-19T05:06:51;30.80;30.90
67188;DHT22;54117;53.532;49.426;2022-08-19T05:09:20;30.60;31.30
67188;DHT22;54117;53.532;49.426;2022-08-19T05:11:47;30.60;31.40
67188;DHT22;54117;53.532;49.426;2022-08-19T05:14:15;30.50;31.30
67188;DHT22;54117;53.532;49.426;2022-08-19T05:16:48;30.60;31.80
67188;DHT22;54117;53.532;49.426;2022-08-19T05:19:17;30.80;31.40
67188;DHT22;54117;53.532;49.426;2022-08-19T05:22:02;31.00;31.20
67188;DHT22;54117;53.532;49.426;2022-08-19T05:24:46;31.00;31.30
67188;DHT22;54117;53.532;49.426;2022-08-19T05:27:13;31.10;31.70
67188;DHT22;54117;53.532;49.426;2022-08-19T05:29:39;31.10;30.80
67188;DHT22;54117;53.532;49.426;2022-08-19T05:32:06;31.10;31.10
67188;DHT22;54117;53.532;49.426;2022-08-19T05:34:37;31.30;30.80
67188;DHT22;54117;53.532;49.426;2022-08-19T05:37:05;31.20;31.20
67188;DHT22;54117;53.532;49.426;2022-08-19T05:39:34;31.50;31.00
67188;DHT22;54117;53.532;49.426;2022-08-19T05:42:03;31.70;30.60
67188;DHT22;54117;53.532;49.426;2022-08-19T05:44:36;31.70;30.50
67188;DHT22;54117;53.532;49.426;2022-08-19T05:47:06;31.60;30.20
67188;DHT22;54117;53.532;49.426;2022-08-19T05:49:35;31.40;30.50
67188;DHT22;54117;53.532;49.426;2022-08-19T05:52:09;31.40;30.60
67188;DHT22;54117;53.532;49.426;2022-08-19T05:54:40;31.70;30.90
67188;DHT22;54117;53.532;49.426;2022-08-19T05:57:08;32.10;30.30
67188;DHT22;54117;53.532;49.426;2022-08-19T05:59:34;32.30;30.10
67188;DHT22;54117;53.532;49.426;2022-08-19T06:02:02;32.40;30.00
67188;DHT22;54117;53.532;49.426;2022-08-19T06:04:29;32.30;30.00
67188;DHT22;54117;53.532;49.426;2022-08-19T06:06:55;32.30;30.10
67188;DHT22;54117;53.532;49.426;2022-08-19T06:09:23;32.30;29.90
67188;DHT22;54117;53.532;49.426;2022-08-19T06:11:55;32.10;30.10
67188;DHT22;54117;53.532;49.426;2022-08-19T06:14:29;31.90;30.30
67188;DHT22;54117;53.532;49.426;2022-08-19T06:16:56;31.80;30.40
67188;DHT22;54117;53.532;49.426;2022-08-19T06:19:24;31.90;31.00
67188;DHT22;54117;53.532;49.426;2022-08-19T06:21:52;32.40;30.70
67188;DHT22;54117;53.532;49.426;2022-08-19T06:24:21;33.00;30.20
67188;DHT22;54117;53.532;49.426;2022-08-19T06:26:51;33.30;29.70
67188;DHT22;54117;53.532;49.426;2022-08-19T06:29:20;33.50;29.50
67188;DHT22;54117;53.532;49.426;2022-08-19T06:31:51;33.40;29.40
67188;DHT22;54117;53.532;49.426;2022-08-19T06:34:22;33.00;29.80
67188;DHT22;54117;53.532;49.426;2022-08-19T06:36:53;32.80;29.60
67188;DHT22;54117;53.532;49.426;2022-08-19T06:39:25;32.60;30.00
67188;DHT22;54117;53.532;49.426;2022-08-19T06:41:54;32.60;30.00
67188;DHT22;54117;53.532;49.426;2022-08-19T06:44:23;32.60;29.90
67188;DHT22;54117;53.532;49.426;2022-08-19T06:46:49;32.60;29.90
67188;DHT22;54117;53.532;49.426;2022-08-19T06:49:17;32.60;29.90
67188;DHT22;54117;53.532;49.426;2022-08-19T06:51:45;32.60;29.80
67188;DHT22;54117;53.532;49.426;2022-08-19T06:54:14;32.60;29.90
67188;DHT22;54117;53.532;49.426;2022-08-19T06:56:41;32.80;30.00
67188;DHT22;54117;53.532;49.426;2022-08-19T06:59:09;32.90;30.00
67188;DHT22;54117;53.532;49.426;2022-08-19T07:01:40;33.10;29.70
67188;DHT22;54117;53.532;49.426;2022-08-19T07:04:07;33.30;29.90
67188;DHT22;54117;53.532;49.426;2022-08-19T07:06:36;33.40;29.70
67188;DHT22;54117;53.532;49.426;2022-08-19T07:09:04;33.60;29.50
67188;DHT22;54117;53.532;49.426;2022-08-19T07:11:31;33.80;29.40
67188;DHT22;54117;53.532;49.426;2022-08-19T07:13:59;33.90;29.30
67188;DHT22;54117;53.532;49.426;2022-08-19T07:16:26;34.00;29.20
67188;DHT22;54117;53.532;49.426;2022-08-19T07:18:53;33.90;28.90
67188;DHT22;54117;53.532;49.426;2022-08-19T07:21:23;33.60;29.20
67188;DHT22;54117;53.532;49.426;2022-08-19T07:23:50;33.50;29.10
67188;DHT22;54117;53.532;49.426;2022-08-19T07:26:24;33.30;29.30
67188;DHT22;54117;53.532;49.426;2022-08-19T07:28:51;32.90;29.40
67188;DHT22;54117;53.532;49.426;2022-08-19T07:31:26;32.40;29.60
67188;DHT22;54117;53.532;49.426;2022-08-19T07:33:55;31.70;29.90
67188;DHT22;54117;53.532;49.426;2022-08-19T07:45:15;28.20;33.20
67188;DHT22;54117;53.532;49.426;2022-08-19T08:05:32;26.50;35.60
67188;DHT22;54117;53.532;49.426;2022-08-19T08:08:24;26.60;36.40
67188;DHT22;54117;53.532;49.426;2022-08-19T08:11:09;26.60;36.10
67188;DHT22;54117;53.532;49.426;2022-08-19T08:13:38;26.60;35.60
67188;DHT22;54117;53.532;49.426;2022-08-19T08:16:07;26.60;35.60
67188;DHT22;54117;53.532;49.426;2022-08-19T08:18:33;26.50;35.30
67188;DHT22;54117;53.532;49.426;2022-08-19T08:21:10;26.40;35.30
67188;DHT22;54117;53.532;49.426;2022-08-19T08:24:07;26.30;35.40
67188;DHT22;54117;53.532;49.426;2022-08-19T08:26:36;26.30;35.20
67188;DHT22;54117;53.532;49.426;2022-08-19T08:29:03;26.20;35.50
67188;DHT22;54117;53.532;49.426;2022-08-19T08:31:30;26.20;35.70
67188;DHT22;54117;53.532;49.426;2022-08-19T08:33:56;26.10;35.70
67188;DHT22;54117;53.532;49.426;2022-08-19T08:36:23;26.10;35.80
67188;DHT22;54117;53.532;49.426;2022-08-19T08:38:55;26.10;35.80
67188;DHT22;54117;53.532;49.426;2022-08-19T08:41:40;26.10;35.30
67188;DHT22;54117;53.532;49.426;2022-08-19T08:50:20;25.80;35.20
67188;DHT22;54117;53.532;49.426;2022-08-19T08:52:50;25.80;35.50
67188;DHT22;54117;53.532;49.426;2022-08-19T08:55:28;25.80;35.60
67188;DHT22;54117;53.532;49.426;2022-08-19T08:58:05;25.90;36.00
67188;DHT22;54117;53.532;49.426;2022-08-19T09:00:40;26.00;35.70
67188;DHT22;54117;53.532;49.426;2022-08-19T09:03:16;26.00;34.90
67188;DHT22;54117;53.532;49.426;2022-08-19T09:05:59;26.00;35.10
67188;DHT22;54117;53.532;49.426;2022-08-19T09:11:08;26.00;35.20
67188;DHT22;54117;53.532;49.426;2022-08-19T09:13:46;25.90;35.50
67188;DHT22;54117;53.532;49.426;2022-08-19T09:16:18;26.00;35.70
67188;DHT22;54117;53.532;49.426;2022-08-19T09:18:52;26.00;35.30
67188;DHT22;54117;53.532;49.426;2022-08-19T09:21:21;26.00;35.30
67188;DHT22;54117;53.532;49.426;2022-08-19T09:23:49;26.00;35.10
67188;DHT22;54117;53.532;49.426;2022-08-19T09:26:18;26.00;34.90
67188;DHT22;54117;53.532;49.426;2022-08-19T09:28:50;25.90;35.10
67188;DHT22;54117;53.532;49.426;2022-08-19T09:31:30;25.90;35.00
67188;DHT22;54117;53.532;49.426;2022-08-19T09:34:32;25.90;35.30
67188;DHT22;54117;53.532;49.426;2022-08-19T09:37:10;25.90;35.40
67188;DHT22;54117;53.532;49.426;2022-08-19T09:39:37;25.90;35.00
67188;DHT22;54117;53.532;49.426;2022-08-19T09:42:07;26.00;35.00
67188;DHT22;54117;53.532;49.426;2022-08-19T09:44:40;25.90;34.90
67188;DHT22;54117;53.532;49.426;2022-08-19T09:47:08;25.90;34.50
67188;DHT22;54117;53.532;49.426;2022-08-19T09:49:39;25.90;34.30
67188;DHT22;54117;53.532;49.426;2022-08-19T09:52:09;25.80;34.60
67188;DHT22;54117;53.532;49.426;2022-08-19T09:55:06;25.80;35.20
67188;DHT22;54117;53.532;49.426;2022-08-19T09:57:33;25.80;34.60
67188;DHT22;54117;53.532;49.426;2022-08-19T10:00:05;25.80;34.40
67188;DHT22;54117;53.532;49.426;2022-08-19T10:36:37;25.60;32.70
67188;DHT22;54117;53.532;49.426;2022-08-19T10:39:07;25.70;32.80
67188;DHT22;54117;53.532;49.426;2022-08-19T10:41:41;25.70;32.50
67188;DHT22;54117;53.532;49.426;2022-08-19T10:44:11;25.70;31.90
67188;DHT22;54117;53.532;49.426;2022-08-19T10:46:53;25.70;32.00
67188;DHT22;54117;53.532;49.426;2022-08-19T10:49:20;25.70;31.90
67188;DHT22;54117;53.532;49.426;2022-08-19T10:52:23;25.80;32.00
67188;DHT22;54117;53.532;49.426;2022-08-19T10:55:08;25.70;32.00
67188;DHT22;54117;53.532;49.426;2022-08-19T10:58:06;25.70;32.10
67188;DHT22;54117;53.532;49.426;2022-08-19T11:00:37;25.70;32.10
67188;DHT22;54117;53.532;49.426;2022-08-19T11:03:14;25.70;32.00
67188;DHT22;54117;53.532;49.426;2022-08-19T11:06:00;25.80;32.10
67188;DHT22;54117;53.532;49.426;2022-08-19T11:08:32;25.80;31.50
67188;DHT22;54117;53.532;49.426;2022-08-19T11:11:05;25.80;31.90
67188;DHT22;54117;53.532;49.426;2022-08-19T11:13:39;25.80;32.20
67188;DHT22;54117;53.532;49.426;2022-08-19T11:16:17;25.90;32.00
67188;DHT22;54117;53.532;49.426;2022-08-19T11:18:51;25.80;32.10
67188;DHT22;54117;53.532;49.426;2022-08-19T11:21:29;25.80;32.30
67188;DHT22;54117;53.532;49.426;2022-08-19T11:24:01;25.80;32.30
67188;DHT22;54117;53.532;49.426;2022-08-19T11:26:30;25.80;32.50
67188;DHT22;54117;53.532;49.426;2022-08-19T11:28:58;25.80;32.50
67188;DHT22;54117;53.532;49.426;2022-08-19T11:31:29;25.80;32.30
67188;DHT22;54117;53.532;49.426;2022-08-19T11:34:01;25.80;32.00
67188;DHT22;54117;53.532;49.426;2022-08-19T11:36:31;25.90;32.00
67188;DHT22;54117;53.532;49.426;2022-08-19T11:39:07;25.80;31.30
67188;DHT22;54117;53.532;49.426;2022-08-19T11:41:38;25.80;31.20
67188;DHT22;54117;53.532;49.426;2022-08-19T11:44:21;25.80;31.20
67188;DHT22;54117;53.532;49.426;2022-08-19T11:46:51;25.80;31.30
67188;DHT22;54117;53.532;49.426;2022-08-19T11:52:22;25.80;31.20
67188;DHT22;54117;53.532;49.426;2022-08-19T11:54:52;25.80;31.40
67188;DHT22;54117;53.532;49.426;2022-08-19T11:57:20;25.80;31.40
67188;DHT22;54117;53.532;49.426;2022-08-19T11:59:49;25.80;31.20
67188;DHT22;54117;53.532;49.426;2022-08-19T12:02:16;25.80;31.20
67188;DHT22;54117;53.532;49.426;2022-08-19T12:04:45;25.80;31.10
67188;DHT22;54117;53.532;49.426;2022-08-19T12:07:14;25.80;30.30
67188;DHT22;54117;53.532;49.426;2022-08-19T12:09:46;25.70;30.00
67188;DHT22;54117;53.532;49.426;2022-08-19T12:12:18;25.70;30.30
67188;DHT22;54117;53.532;49.426;2022-08-19T12:14:44;25.70;30.40
67188;DHT22;54117;53.532;49.426;2022-08-19T12:17:13;25.70;30.50
67188;DHT22;54117;53.532;49.426;2022-08-19T12:19:39;25.70;30.50
67188;DHT22;54117;53.532;49.426;2022-08-19T12:22:06;25.70;30.60
67188;DHT22;54117;53.532;49.426;2022-08-19T12:24:33;25.70;30.30
67188;DHT22;54117;53.532;49.426;2022-08-19T12:27:01;25.70;30.50
67188;DHT22;54117;53.532;49.426;2022-08-19T12:29:29;25.80;30.60
67188;DHT22;54117;53.532;49.426;2022-08-19T12:32:00;25.70;30.40
67188;DHT22;54117;53.532;49.426;2022-08-19T12:34:33;25.80;30.40
67188;DHT22;54117;53.532;49.426;2022-08-19T12:37:04;25.80;30.60
67188;DHT22;54117;53.532;49.426;2022-08-19T12:39:41;25.80;30.30
67188;DHT22;54117;53.532;49.426;2022-08-19T12:42:09;25.70;30.50
67188;DHT22;54117;53.532;49.426;2022-08-19T12:44:37;25.70;30.60
67188;DHT22;54117;53.532;49.426;2022-08-19T12:47:06;25.70;30.60
67188;DHT22;54117;53.532;49.426;2022-08-19T12:49:33;25.70;30.60
67188;DHT22;54117;53.532;49.426;2022-08-19T12:52:00;25.70;30.60
67188;DHT22;54117;53.532;49.426;2022-08-19T12:54:27;25.60;30.70
67188;DHT22;54117;53.532;49.426;2022-08-19T12:56:54;25.60;30.60
67188;DHT22;54117;53.532;49.426;2022-08-19T12:59:20;25.60;30.90
67188;DHT22;54117;53.532;49.426;2022-08-19T13:01:47;25.60;31.30
67188;DHT22;54117;53.532;49.426;2022-08-19T13:04:13;25.50;31.20
67188;DHT22;54117;53.532;49.426;2022-08-19T13:06:39;25.60;31.30
67188;DHT22;54117;53.532;49.426;2022-08-19T13:09:05;25.60;30.90
67188;DHT22;54117;53.532;49.426;2022-08-19T13:11:32;25.60;30.90
67188;DHT22;54117;53.532;49.426;2022-08-19T13:14:00;25.50;30.80
67188;DHT22;54117;53.532;49.426;2022-08-19T13:16:36;25.60;31.10
67188;DHT22;54117;53.532;49.426;2022-08-19T13:19:04;25.50;30.70
67188;DHT22;54117;53.532;49.426;2022-08-19T13:21:31;25.50;29.90
67188;DHT22;54117;53.532;49.426;2022-08-19T13:23:57;25.50;29.60
67188;DHT22;54117;53.532;49.426;2022-08-19T13:26:24;25.50;29.80
67188;DHT22;54117;53.532;49.426;2022-08-19T13:28:50;25.50;29.80
67188;DHT22;54117;53.532;49.426;2022-08-19T13:31:38;25.50;29.70
67188;DHT22;54117;53.532;49.426;2022-08-19T13:34:32;25.40;29.60
67188;DHT22;54117;53.532;49.426;2022-08-19T13:37:01;25.30;29.80
67188;DHT22;54117;53.532;49.426;2022-08-19T13:39:31;25.30;29.60
67188;DHT22;54117;53.532;49.426;2022-08-19T13:41:59;25.30;29.80
67188;DHT22;54117;53.532;49.426;2022-08-19T13:44:29;25.30;29.70
67188;DHT22;54117;53.532;49.426;2022-08-19T13:49:53;25.30;29.30
67188;DHT22;54117;53.532;49.426;2022-08-19T13:52:19;25.20;29.20
67188;DHT22;54117;53.532;49.426;2022-08-19T13:54:45;25.20;29.50
67188;DHT22;54117;53.532;49.426;2022-08-19T13:57:13;25.10;29.70
67188;DHT22;54117;53.532;49.426;2022-08-19T13:59:40;25.20;29.70
67188;DHT22;54117;53.532;49.426;2022-08-19T14:02:19;25.10;29.70
67188;DHT22;54117;53.532;49.426;2022-08-19T14:04:56;25.10;29.20
67188;DHT22;54117;53.532;49.426;2022-08-19T14:07:27;25.10;29.30
67188;DHT22;54117;53.532;49.426;2022-08-19T14:09:53;25.00;29.00
67188;DHT22;54117;53.532;49.426;2022-08-19T14:12:20;25.00;28.90
67188;DHT22;54117;53.532;49.426;2022-08-19T14:14:47;24.90;28.90
67188;DHT22;54117;53.532;49.426;2022-08-19T14:17:14;24.90;28.90
67188;DHT22;54117;53.532;49.426;2022-08-19T14:22:28;24.80;29.10
67188;DHT22;54117;53.532;49.426;2022-08-19T14:30:59;24.60;29.30
67188;DHT22;54117;53.532;49.426;2022-08-19T14:33:28;24.60;29.50
67188;DHT22;54117;53.532;49.426;2022-08-19T14:35:55;24.50;29.60
67188;DHT22;54117;53.532;49.426;2022-08-19T14:42:00;24.30;29.90
67188;DHT22;54117;53.532;49.426;2022-08-19T14:44:30;24.30;30.00
67188;DHT22;54117;53.532;49.426;2022-08-19T14:47:04;24.20;30.10
67188;DHT22;54117;53.532;49.426;2022-08-19T14:49:38;24.20;30.30
67188;DHT22;54117;53.532;49.426;2022-08-19T14:52:11;24.10;30.20
67188;DHT22;54117;53.532;49.426;2022-08-19T14:54:40;24.10;30.30
67188;DHT22;54117;53.532;49.426;2022-08-19T14:59:50;24.00;30.40
67188;DHT22;54117;53.532;49.426;2022-08-19T15:08:59;23.80;31.10
67188;DHT22;54117;53.532;49.426;2022-08-19T15:15:22;23.80;31.30
67188;DHT22;54117;53.532;49.426;2022-08-19T15:21:16;23.60;31.60
67188;DHT22;54117;53.532;49.426;2022-08-19T15:24:03;23.50;31.80
67188;DHT22;54117;53.532;49.426;2022-08-19T15:26:43;23.50;32.10
67188;DHT22;54117;53.532;49.426;2022-08-19T15:29:10;23.40;32.20
67188;DHT22;54117;53.532;49.426;2022-08-19T15:32:02;23.30;32.30
67188;DHT22;54117;53.532;49.426;2022-08-19T15:34:43;23.20;32.40
67188;DHT22;54117;53.532;49.426;2022-08-19T15:37:11;23.20;32.50
67188;DHT22;54117;53.532;49.426;2022-08-19T15:42:44;23.00;33.20
67188;DHT22;54117;53.532;49.426;2022-08-19T15:45:25;22.90;33.50
67188;DHT22;54117;53.532;49.426;2022-08-19T15:48:02;22.70;33.60
67188;DHT22;54117;53.532;49.426;2022-08-19T15:50:32;22.60;34.00
67188;DHT22;54117;53.532;49.426;2022-08-19T15:53:08;22.60;34.10
67188;DHT22;54117;53.532;49.426;2022-08-19T15:56:10;22.50;34.20
67188;DHT22;54117;53.532;49.426;2022-08-19T15:58:29;22.40;34.60
67188;DHT22;54117;53.532;49.426;2022-08-19T16:01:15;22.30;34.70
67188;DHT22;54117;53.532;49.426;2022-08-19T16:04:00;22.20;34.90
67188;DHT22;54117;53.532;49.426;2022-08-19T16:06:47;22.10;35.10
67188;DHT22;54117;53.532;49.426;2022-08-19T16:09:23;22.00;35.30
67188;DHT22;54117;53.532;49.426;2022-08-19T16:12:01;22.00;35.60
67188;DHT22;54117;53.532;49.426;2022-08-19T16:17:32;21.80;36.40
67188;DHT22;54117;53.532;49.426;2022-08-19T16:23:11;21.70;36.20
67188;DHT22;54117;53.532;49.426;2022-08-19T16:25:38;21.60;36.20
67188;DHT22;54117;53.532;49.426;2022-08-19T16:28:04;21.50;36.40
67188;DHT22;54117;53.532;49.426;2022-08-19T16:30:30;21.50;36.70
67188;DHT22;54117;53.532;49.426;2022-08-19T16:32:56;21.40;36.80
67188;DHT22;54117;53.532;49.426;2022-08-19T16:35:23;21.30;37.00
67188;DHT22;54117;53.532;49.426;2022-08-19T16:37:49;21.20;37.80
67188;DHT22;54117;53.532;49.426;2022-08-19T16:40:19;21.10;37.50
67188;DHT22;54117;53.532;49.426;2022-08-19T16:42:56;21.10;37.90
67188;DHT22;54117;53.532;49.426;2022-08-19T16:45:22;21.10;37.60
67188;DHT22;54117;53.532;49.426;2022-08-19T16:47:48;21.10;37.70
67188;DHT22;54117;53.532;49.426;2022-08-19T16:50:16;21.00;37.90
67188;DHT22;54117;53.532;49.426;2022-08-19T16:52:46;20.90;38.20
67188;DHT22;54117;53.532;49.426;2022-08-19T16:55:25;20.80;38.60
67188;DHT22;54117;53.532;49.426;2022-08-19T16:57:53;20.60;38.80
67188;DHT22;54117;53.532;49.426;2022-08-19T17:00:20;20.60;39.30
67188;DHT22;54117;53.532;49.426;2022-08-19T17:02:47;20.40;39.40
67188;DHT22;54117;53.532;49.426;2022-08-19T17:05:13;20.40;39.40
67188;DHT22;54117;53.532;49.426;2022-08-19T17:07:40;20.30;39.50
67188;DHT22;54117;53.532;49.426;2022-08-19T17:10:06;20.30;39.70
67188;DHT22;54117;53.532;49.426;2022-08-19T17:12:32;20.30;40.20
67188;DHT22;54117;53.532;49.426;2022-08-19T17:15:00;20.20;39.90
67188;DHT22;54117;53.532;49.426;2022-08-19T17:17:28;20.10;39.80
67188;DHT22;54117;53.532;49.426;2022-08-19T17:19:57;20.10;39.90
67188;DHT22;54117;53.532;49.426;2022-08-19T17:22:25;20.10;40.00
67188;DHT22;54117;53.532;49.426;2022-08-19T17:24:52;20.10;40.10
67188;DHT22;54117;53.532;49.426;2022-08-19T17:27:18;20.10;39.90
67188;DHT22;54117;53.532;49.426;2022-08-19T17:29:45;20.00;40.20